ADDS METAR Data INFO
IDs: Format: Raw Decoded Include TAF

Data at: 1848 UTC 17 Oct 2017

KRWI 171753Z AUTO 02011KT 10SM CLR 17/03 A3031 RMK AO2 SLP264 T01720033 10178 20078 58017
KRWI 171653Z AUTO 36012KT 10SM CLR 17/04 A3034 RMK AO2 SLP272 T01670039
KRWI 171553Z AUTO 02010KT 10SM CLR 16/05 A3035 RMK AO2 SLP278 T01560050
KRWI 171453Z AUTO 02010KT 10SM CLR 14/07 A3036 RMK AO2 SLP282 T01440072 51018
KRWI 171353Z AUTO 02011KT 10SM CLR 12/07 A3035 RMK AO2 SLP279 T01220067
KRWI 171253Z AUTO 36011KT 10SM CLR 10/06 A3033 RMK AO2 SLP272 T01000056
KRWI 171153Z AUTO 35006KT 10SM CLR 08/05 A3031 RMK AO2 SLP264 70009 T00780050 10100 20078 53021
KRWI 171053Z AUTO 36010KT 10SM CLR 08/04 A3028 RMK AO2 SLP255 T00830044
KRWI 170953Z AUTO 35007KT 10SM CLR 08/05 A3027 RMK AO2 SLP250 T00780050
KRWI 170853Z AUTO 35007KT 10SM CLR 09/06 A3025 RMK AO2 SLP243 T00890056 53006
KRWI 170753Z AUTO 01007KT 10SM CLR 09/06 A3023 RMK AO2 SLP237 T00940061
KRWI 170653Z AUTO 35008KT 10SM CLR 09/07 A3024 RMK AO2 SLP240 T00940067
KRWI 170553Z AUTO 36008KT 10SM CLR 10/07 A3023 RMK AO2 SLP236 T01000072 10144 20100 51005
KRWI 170453Z AUTO 35007KT 10SM CLR 11/08 A3022 RMK AO2 SLP233 T01110078 402280100
KRWI 170353Z AUTO 35005KT 10SM CLR 11/09 A3023 RMK AO2 SLP236 T01110089
KRWI 170253Z AUTO 02004KT 10SM CLR 10/09 A3022 RMK AO2 SLP231 T01000089 51021
KRWI 170153Z AUTO 02005KT 10SM CLR 12/10 A3020 RMK AO2 SLP227 T01170100
KRWI 170053Z AUTO 36007KT 10SM CLR 13/11 A3018 RMK AO2 SLP218 T01330111
KRWI 162353Z AUTO 36005KT 10SM CLR 13/13 A3015 RMK AO2 SLP210 60001 T01280128 10156 20128 53021
KRWI 162253Z AUTO 36003KT 10SM SCT055 14/14 A3013 RMK AO2 SLP201 T01440139
KRWI 162153Z AUTO 01007KT 10SM OVC055 16/13 A3010 RMK AO2 SLP191 T01560133
KRWI 162053Z AUTO 36006KT 10SM OVC042 16/13 A3009 RMK AO2 SLP189 60001 T01560133 53005
KRWI 161953Z AUTO 36009KT 10SM SCT042 BKN049 OVC070 15/14 A3007 RMK AO2 SLP182 T01500139
KRWI 161853Z AUTO 01007KT 10SM BKN039 OVC055 15/14 A3007 RMK AO2 RAB05E48 SLP183 P0001 T01500139
KRWI 161753Z AUTO 36008KT 10SM OVC030 15/14 A3008 RMK AO2 RAB06E41 SLP184 P0001 60008 T01500139 10228 20144 50015
KRWI 161736Z AUTO 01010KT 10SM -RA BKN030 OVC050 14/13 A3007 RMK AO2 RAB06 P0001 T01440133
KRWI 161653Z AUTO 02013KT 10SM FEW015 BKN028 OVC050 14/13 A3009 RMK AO2 PK WND 01026/1633 RAE44 SLP188 P0002 T01440133
KRWI 161553Z AUTO 36013KT 3SM RA BR FEW010 OVC023 16/15 A3008 RMK AO2 SLP185 P0004 T01560150
KRWI 161527Z AUTO 01017G25KT 4SM -RA BR SCT008 BKN015 OVC022 17/16 A3006 RMK AO2 P0003 T01670161
KRWI 161511Z AUTO 33009KT 2SM RA BR FEW009 BKN018 OVC027 19/19 A3005 RMK AO2 P0002 T01940189
KRWI 161500Z AUTO 32008KT 1 3/4SM +RA BR BKN019 OVC024 20/19 A3004 RMK AO2 P0001 T02000189
KRWI 161453Z AUTO 32011KT 4SM RA BR BKN019 OVC026 21/19 A3003 RMK AO2 RAB47 SLP169 P0001 60001 T02060189 53008
KRWI 161353Z AUTO 36008KT 10SM FEW015 OVC025 22/19 A3002 RMK AO2 SLP162 T02220189
KRWI 161343Z AUTO 34008KT 10SM FEW015 BKN023 OVC090 22/19 A3001 RMK AO2 T02170194
KRWI 161253Z AUTO 30005KT 10SM FEW020 FEW044 BKN090 21/19 A3001 RMK AO2 SLP160 T02110194
KRWI 161248Z AUTO 30006KT 10SM SCT021 BKN044 BKN085 21/20 A3001 RMK AO2
KRWI 161224Z AUTO 27004KT 10SM BKN022 OVC035 21/20 A3000 RMK AO2 T02060200
KRWI 161153Z AUTO 00000KT 9SM BKN038 BKN055 OVC085 20/19 A2999 RMK AO2 SLP152 T02000194 10200 20189 53008
KRWI 161053Z AUTO 22005KT 9SM FEW039 FEW065 19/19 A2997 RMK AO2 SLP146 T01940194
KRWI 160953Z AUTO 20006KT 10SM BKN038 BKN047 19/19 A2997 RMK AO2 SLP147 T01940194 $
KRWI 160853Z AUTO 19005KT 10SM CLR 19/19 A2996 RMK AO2 SLP144 T01940194 56009 $
KRWI 160753Z AUTO 21005KT 10SM CLR 19/19 A2997 RMK AO2 SLP146 T01890189 $
KRWI 160653Z AUTO 20005KT 10SM CLR 19/19 A2998 RMK AO2 SLP149 T01940189 $